Decoded Metar for KOJC (OLATHE/EXECUTIVE in KS, USA) (IATA:OJC) | Meteo·Mobile Aviation Weather
aviador You're here:

KOJC Decoded Metar

OLATHE/EXECUTIVE in KS, USA
Report Time2019-06-26 17:53:00
UTC Time2019-06-26 18:09:04
Flight Rules vfr VFR
Wind090° at 07 kt
W.Decomp.*RWY 36: 0.5 kt HW 7.0 kt RCW
Visibility9999 m
Phenomena:N/A
Clouds:N/A
Expected CloudBase > 5,200 ft AGL from Temp-Dew spread
CeilingNone
Temp29°C (ISA +16)
Dew Point16°C (45% RH)
Heat Index29.1°C
AAT28.4°C
QNH1020 hPa
Density Alt2,930 ft
Elevation1,070 ft
Report Wrong Elevation
Raw Report
KOJC 261753Z 09007KT 060V140 10SM CLR 29/16 A3011 RMK AO2 SLP184
T02890161 10289 20200 56007=

Extra information for KOJC:More info

Metar Taf Metar & Taf Last 4 Metars F.Rules Stats Wind Profile Meteogram Temp Stats Airport Information Weather charts Add Link Nearby VenuesMetar ALERT Operation Metar Decoded Social comments

AIRNAV info for KOJC